createdAt,value
2023-07-12T00:01:41.159Z,99975.44
2023-07-12T00:04:11.107Z,99968.63
2023-07-12T00:06:41.471Z,99955.16
2023-07-12T00:09:15.910Z,99967.38
2023-07-12T00:11:44.598Z,99970.00
2023-07-12T00:14:13.216Z,99960.34
2023-07-12T00:16:43.356Z,99978.56
2023-07-12T00:19:15.808Z,99980.06
2023-07-12T00:21:44.826Z,99991.69
2023-07-12T00:24:13.409Z,99999.09
2023-07-12T00:26:41.911Z,100004.09
2023-07-12T00:29:11.078Z,100012.34
2023-07-12T00:31:40.793Z,99992.94
2023-07-12T00:34:09.721Z,99995.69
2023-07-12T00:36:39.725Z,99982.31
2023-07-12T00:39:08.542Z,99979.22
2023-07-12T00:41:52.846Z,99984.78
2023-07-12T00:44:25.359Z,99975.16
2023-07-12T00:46:57.616Z,99991.88
2023-07-12T00:49:26.622Z,99987.13
2023-07-12T00:52:02.156Z,99983.13
2023-07-12T00:54:50.576Z,99984.69
2023-07-12T00:57:19.727Z,99982.22
2023-07-12T00:59:48.206Z,99978.66
2023-07-12T01:02:17.290Z,99972.28
2023-07-12T01:04:50.550Z,99981.41
2023-07-12T01:07:21.956Z,99976.72
2023-07-12T01:09:50.795Z,99980.28
2023-07-12T01:12:19.533Z,99994.19
2023-07-12T01:14:49.526Z,99999.84
2023-07-12T01:17:18.637Z,99983.81
2023-07-12T01:19:47.229Z,99983.75
2023-07-12T01:22:17.039Z,99988.13
2023-07-12T01:24:45.619Z,99983.66
2023-07-12T01:27:17.058Z,99976.19
2023-07-12T01:29:46.851Z,99970.16
2023-07-12T01:32:15.590Z,99964.03
2023-07-12T01:34:44.050Z,99959.06
2023-07-12T01:37:14.097Z,99969.72
2023-07-12T01:39:43.981Z,99965.84
2023-07-12T01:42:12.681Z,99966.56
2023-07-12T01:44:41.244Z,99965.78
2023-07-12T01:47:09.729Z,99973.88
2023-07-12T01:49:38.252Z,99997.00
2023-07-12T01:52:07.595Z,100016.75
2023-07-12T01:54:36.171Z,100023.47
2023-07-12T01:57:07.217Z,100033.50
2023-07-12T01:59:36.814Z,100074.75
2023-07-12T02:02:05.661Z,100073.84
2023-07-12T02:04:34.412Z,100074.94
2023-07-12T02:07:04.515Z,100081.50
2023-07-12T02:09:36.798Z,100071.38
2023-07-12T02:12:08.067Z,100060.53
2023-07-12T02:14:36.760Z,100069.28
2023-07-12T02:17:05.657Z,100071.75
2023-07-12T02:19:34.587Z,100077.50
2023-07-12T02:22:03.789Z,100075.94
2023-07-12T02:24:32.370Z,100082.47
2023-07-12T02:27:01.029Z,100083.66
2023-07-12T02:29:30.928Z,100067.88
2023-07-12T02:31:59.422Z,100042.94
2023-07-12T02:34:28.048Z,100052.50
2023-07-12T02:36:56.500Z,100055.75
2023-07-12T02:39:25.187Z,100056.56
2023-07-12T02:41:53.639Z,100052.50
2023-07-12T02:44:22.481Z,100077.06
2023-07-12T02:46:52.272Z,100082.88
2023-07-12T02:49:20.771Z,100097.47
2023-07-12T02:51:49.391Z,100100.72
2023-07-12T02:54:17.854Z,100102.50
2023-07-12T02:56:46.545Z,100100.34
2023-07-12T02:59:15.100Z,100129.59
2023-07-12T03:01:43.623Z,100136.38
2023-07-12T03:04:13.636Z,100131.94
2023-07-12T03:06:42.048Z,100154.50
2023-07-12T03:09:10.891Z,100174.44
2023-07-12T03:11:39.830Z,100163.75
2023-07-12T03:14:08.458Z,100122.53
2023-07-12T03:16:37.259Z,100123.25
2023-07-12T03:19:27.227Z,100169.31
2023-07-12T03:21:55.865Z,100167.84
2023-07-12T03:24:24.255Z,100153.31
2023-07-12T03:26:52.843Z,100140.91
2023-07-12T03:29:21.335Z,100146.25
2023-07-12T03:31:50.476Z,100169.69
2023-07-12T03:34:19.148Z,100180.44
2023-07-12T03:36:49.123Z,100195.53
2023-07-12T03:39:17.580Z,100195.06
2023-07-12T03:41:45.935Z,100174.25
2023-07-12T03:44:14.358Z,100152.78
2023-07-12T03:46:43.103Z,100148.97
2023-07-12T03:49:11.734Z,100128.75
2023-07-12T03:52:01.569Z,100133.59
2023-07-12T03:54:30.743Z,100127.50
2023-07-12T03:56:59.081Z,100141.06
2023-07-12T03:59:27.465Z,100128.66
2023-07-12T04:01:55.933Z,100115.28
2023-07-12T04:04:24.434Z,100116.09
2023-07-12T04:06:53.099Z,100111.88
2023-07-12T04:09:22.877Z,100116.22
2023-07-12T04:11:51.320Z,100110.75
2023-07-12T04:14:19.911Z,100094.19
2023-07-12T04:16:48.702Z,100110.06
2023-07-12T04:19:17.476Z,100106.84
2023-07-12T04:21:45.951Z,100108.81
2023-07-12T04:24:14.483Z,100097.75
2023-07-12T04:26:44.414Z,100104.31
2023-07-12T04:29:13.056Z,100109.63
2023-07-12T04:31:42.295Z,100130.41
2023-07-12T04:34:10.986Z,100145.47
2023-07-12T04:36:40.161Z,100143.28
2023-07-12T04:39:09.273Z,100129.56
2023-07-12T04:41:38.389Z,100114.03
2023-07-12T04:44:40.072Z,100124.63
2023-07-12T04:47:09.143Z,100139.56
2023-07-12T04:49:38.157Z,100107.25
2023-07-12T04:52:07.391Z,100115.28
2023-07-12T04:54:36.435Z,100115.09
2023-07-12T04:57:19.129Z,100130.94
2023-07-12T04:59:49.042Z,100127.84
2023-07-12T05:02:17.661Z,100138.31
2023-07-12T05:04:46.132Z,100145.91
2023-07-12T05:07:14.778Z,100144.97
2023-07-12T05:09:43.233Z,100148.81
2023-07-12T05:12:12.993Z,100146.75
2023-07-12T05:14:41.819Z,100145.72
2023-07-12T05:17:11.613Z,100149.94
2023-07-12T05:19:39.991Z,100168.66
2023-07-12T05:22:08.598Z,100164.91
2023-07-12T05:24:37.283Z,100167.03
2023-07-12T05:27:06.634Z,100169.84
2023-07-12T05:29:35.177Z,100161.72
2023-07-12T05:32:03.717Z,100165.84
2023-07-12T05:34:33.960Z,100172.50
2023-07-12T05:37:02.498Z,100170.25
2023-07-12T05:39:30.926Z,100175.97
2023-07-12T05:41:59.654Z,100169.84
2023-07-12T05:44:28.102Z,100186.44
2023-07-12T05:46:56.564Z,100181.59
2023-07-12T05:49:25.927Z,100187.00
2023-07-12T05:51:55.744Z,100188.88
2023-07-12T05:54:24.199Z,100204.50
2023-07-12T05:56:52.604Z,100198.97
2023-07-12T05:59:23.487Z,100206.91
2023-07-12T06:01:52.131Z,100205.66
2023-07-12T06:04:21.993Z,100216.03
2023-07-12T06:06:51.543Z,100208.69
2023-07-12T06:09:21.366Z,100211.66
2023-07-12T06:11:49.921Z,100228.47
2023-07-12T06:14:18.508Z,100237.22
2023-07-12T06:16:46.933Z,100234.16
2023-07-12T06:19:15.609Z,100227.22
2023-07-12T06:21:44.168Z,100234.50
2023-07-12T06:24:12.685Z,100237.88
2023-07-12T06:26:42.503Z,100243.13
2023-07-12T06:29:10.948Z,100243.59
2023-07-12T06:31:39.453Z,100246.88
2023-07-12T06:34:08.059Z,100241.84
2023-07-12T06:36:36.646Z,100246.81
2023-07-12T06:39:05.435Z,100245.88
2023-07-12T06:41:33.845Z,100256.38
2023-07-12T06:44:03.684Z,100260.75
2023-07-12T06:46:32.631Z,100255.28
2023-07-12T06:49:01.248Z,100246.63
2023-07-12T06:51:29.722Z,100256.31
2023-07-12T06:53:58.182Z,100258.97
2023-07-12T06:56:26.671Z,100261.13
2023-07-12T06:58:55.286Z,100264.31
2023-07-12T07:01:25.253Z,100269.00
2023-07-12T07:03:53.713Z,100269.22
2023-07-12T07:06:22.923Z,100262.03
2023-07-12T07:08:51.445Z,100260.44
2023-07-12T07:11:20.041Z,100255.44
2023-07-12T07:13:48.882Z,100252.94
2023-07-12T07:16:17.389Z,100263.13
2023-07-12T07:18:50.444Z,100249.75
2023-07-12T07:21:19.338Z,100269.38
2023-07-12T07:23:47.772Z,100251.97
2023-07-12T07:26:16.763Z,100260.91
2023-07-12T07:28:45.525Z,100262.22
2023-07-12T07:31:13.938Z,100245.06
2023-07-12T07:33:42.763Z,100260.19
2023-07-12T07:36:14.951Z,100257.81
2023-07-12T07:38:43.615Z,100249.75
2023-07-12T07:41:15.977Z,100254.13
2023-07-12T07:43:45.765Z,100262.41
2023-07-12T07:46:15.171Z,100256.19
2023-07-12T07:48:43.847Z,100258.19
2023-07-12T07:51:15.718Z,100262.28
2023-07-12T07:53:44.635Z,100254.56
2023-07-12T07:56:13.300Z,100259.59
2023-07-12T07:58:41.798Z,100255.56
2023-07-12T08:01:10.466Z,100276.94
2023-07-12T08:03:39.365Z,100259.94
2023-07-12T08:06:08.606Z,100268.63
2023-07-12T08:08:38.632Z,100262.06
2023-07-12T08:11:07.917Z,100265.16
2023-07-12T08:13:37.363Z,100267.06
2023-07-12T08:16:06.749Z,100266.00
2023-07-12T08:18:35.963Z,100266.91
2023-07-12T08:21:04.729Z,100261.75
2023-07-12T08:23:33.242Z,100276.75
2023-07-12T08:26:03.054Z,100271.84
2023-07-12T08:28:31.497Z,100264.88
2023-07-12T08:31:00.202Z,100263.41
2023-07-12T08:33:28.741Z,100270.97
2023-07-12T08:35:57.440Z,100270.50
2023-07-12T08:38:26.352Z,100279.03
2023-07-12T08:40:55.303Z,100273.22
2023-07-12T08:43:31.410Z,100283.22
2023-07-12T08:46:08.368Z,100281.31
2023-07-12T08:48:38.849Z,100283.44
2023-07-12T08:51:17.903Z,100281.53
2023-07-12T08:53:47.446Z,100292.22
2023-07-12T08:56:19.966Z,100276.69
2023-07-12T08:58:51.664Z,100278.28
2023-07-12T09:01:44.045Z,100281.97
2023-07-12T09:04:26.476Z,100294.44
2023-07-12T09:06:57.339Z,100292.94
2023-07-12T09:09:27.801Z,100296.66
2023-07-12T09:11:56.900Z,100287.88
2023-07-12T09:14:26.790Z,100298.69
2023-07-12T09:16:59.714Z,100296.03
2023-07-12T09:19:32.952Z,100296.25
2023-07-12T09:22:07.990Z,100294.63
2023-07-12T09:24:44.224Z,100299.72
2023-07-12T09:27:16.936Z,100297.91
2023-07-12T09:29:47.127Z,100291.88
2023-07-12T09:32:19.930Z,100295.56
2023-07-12T09:34:49.016Z,100295.53
2023-07-12T09:37:22.118Z,100299.03
2023-07-12T09:39:56.560Z,100310.25
2023-07-12T09:42:59.910Z,100307.06
2023-07-12T09:45:36.789Z,100305.75
2023-07-12T09:48:11.271Z,100318.59
2023-07-12T09:50:46.554Z,100315.03
2023-07-12T09:53:21.846Z,100314.44
2023-07-12T09:55:57.802Z,100330.53
2023-07-12T09:58:32.293Z,100320.28
2023-07-12T10:01:07.326Z,100325.31
2023-07-12T10:03:39.016Z,100331.69
2023-07-12T10:06:16.811Z,100330.16
2023-07-12T10:08:52.030Z,100337.72
2023-07-12T10:11:29.065Z,100333.13
2023-07-12T10:14:01.445Z,100332.50
2023-07-12T10:16:36.823Z,100324.06
2023-07-12T10:19:15.290Z,100329.41
2023-07-12T10:21:43.998Z,100327.06
2023-07-12T10:24:16.664Z,100337.13
2023-07-12T10:26:46.107Z,100338.22
2023-07-12T10:29:21.406Z,100343.25
2023-07-12T10:31:56.531Z,100342.38
2023-07-12T10:34:31.341Z,100340.16
2023-07-12T10:37:07.763Z,100338.44
2023-07-12T10:39:37.315Z,100336.56
2023-07-12T10:42:13.849Z,100339.09
2023-07-12T10:44:48.069Z,100350.28
2023-07-12T10:47:20.626Z,100349.28
2023-07-12T10:49:58.068Z,100349.81
2023-07-12T10:52:31.183Z,100352.97
2023-07-12T10:55:20.160Z,100347.22
2023-07-12T10:57:50.691Z,100345.56
2023-07-12T11:00:30.273Z,100356.53
2023-07-12T11:03:16.954Z,100343.50
2023-07-12T11:05:48.610Z,100341.53
2023-07-12T11:08:37.130Z,100345.69
2023-07-12T11:11:44.686Z,100340.09
2023-07-12T11:14:17.999Z,100348.13
2023-07-12T11:16:50.695Z,100346.63
2023-07-12T11:20:02.396Z,100358.13
2023-07-12T11:22:54.661Z,100352.25
2023-07-12T11:25:40.059Z,100340.78
2023-07-12T11:28:29.473Z,100347.97
2023-07-12T11:31:21.375Z,100347.47
2023-07-12T11:33:54.156Z,100350.03
2023-07-12T11:36:25.511Z,100361.63
2023-07-12T11:38:56.214Z,100349.00
2023-07-12T11:41:40.913Z,100347.97
2023-07-12T11:44:18.757Z,100347.28
2023-07-12T11:46:51.626Z,100342.16
2023-07-12T11:49:29.706Z,100348.53
2023-07-12T11:52:00.495Z,100350.41
2023-07-12T11:54:39.065Z,100358.91
2023-07-12T11:57:12.655Z,100347.28
2023-07-12T11:59:44.143Z,100348.84
2023-07-12T12:02:16.088Z,100357.31
2023-07-12T12:04:48.920Z,100349.28
2023-07-12T12:07:26.435Z,100350.84
2023-07-12T12:10:00.079Z,100351.19
2023-07-12T12:12:32.392Z,100351.91
2023-07-12T12:15:02.063Z,100363.09
2023-07-12T12:17:33.775Z,100354.19
2023-07-12T12:20:05.899Z,100352.81
2023-07-12T12:22:34.956Z,100362.06
2023-07-12T12:25:05.432Z,100352.25
2023-07-12T12:27:37.575Z,100355.34
2023-07-12T12:30:20.647Z,100343.44
2023-07-12T12:33:02.265Z,100355.38
2023-07-12T12:35:30.959Z,100347.75
2023-07-12T12:38:03.613Z,100356.91
2023-07-12T12:40:35.957Z,100354.69
2023-07-12T12:43:06.407Z,100344.16
2023-07-12T12:45:36.761Z,100347.69
2023-07-12T12:48:15.980Z,100334.34
2023-07-12T12:59:46.365Z,100349.31
2023-07-12T13:06:20.975Z,100354.88
2023-07-12T13:21:28.946Z,100333.03
2023-07-12T13:23:57.397Z,100332.41
2023-07-12T13:26:27.282Z,100333.91
2023-07-12T13:28:55.722Z,100330.16
2023-07-12T13:31:26.352Z,100318.44
2023-07-12T13:33:55.774Z,100324.03
2023-07-12T13:36:30.971Z,100325.50
2023-07-12T13:46:48.170Z,100319.13
2023-07-12T13:49:18.046Z,100320.13
2023-07-12T13:51:47.956Z,100320.16
2023-07-12T13:54:17.643Z,100322.81
2023-07-12T13:56:48.577Z,100312.84
2023-07-12T13:59:19.515Z,100310.56
2023-07-12T14:03:05.423Z,100303.19
2023-07-12T14:04:50.174Z,100313.13
2023-07-12T14:08:08.201Z,100313.63
2023-07-12T14:10:19.031Z,100310.56
2023-07-12T14:13:05.508Z,100317.34
2023-07-12T14:15:34.141Z,100321.34
2023-07-12T14:18:02.615Z,100321.13
2023-07-12T14:20:32.954Z,100330.75
2023-07-12T14:23:17.221Z,100316.97
2023-07-12T14:25:48.403Z,100315.22
2023-07-12T14:28:21.645Z,100319.25
2023-07-12T14:33:32.067Z,100312.97
2023-07-12T14:36:20.993Z,100312.94
2023-07-12T14:38:49.673Z,100316.78
2023-07-12T14:41:21.885Z,100309.88
2023-07-12T14:43:52.201Z,100317.13
2023-07-12T14:46:20.615Z,100309.28
2023-07-12T14:48:49.429Z,100312.03
2023-07-12T14:51:21.673Z,100307.50
2023-07-12T14:53:50.657Z,100310.00
2023-07-12T14:56:21.636Z,100305.78
2023-07-12T14:58:51.517Z,100306.22
2023-07-12T15:01:26.904Z,100303.03
2023-07-12T15:03:57.241Z,100308.97
2023-07-12T15:06:26.137Z,100305.47
2023-07-12T15:08:58.062Z,100307.88
2023-07-12T15:11:27.380Z,100313.72
2023-07-12T15:13:58.355Z,100305.13
2023-07-12T15:16:26.937Z,100306.69
2023-07-12T15:18:55.453Z,100311.59
2023-07-12T15:21:27.110Z,100309.94
2023-07-12T15:23:57.607Z,100310.97
2023-07-12T15:26:27.155Z,100311.63
2023-07-12T15:28:57.190Z,100305.66
2023-07-12T15:31:34.984Z,100309.19
2023-07-12T15:34:04.116Z,100309.00
2023-07-12T15:36:33.301Z,100303.84
2023-07-12T15:39:01.776Z,100301.41
2023-07-12T15:41:51.372Z,100308.94
2023-07-12T15:44:23.020Z,100308.19
2023-07-12T15:46:51.649Z,100305.69
2023-07-12T15:49:20.581Z,100307.50
2023-07-12T15:51:49.741Z,100305.28
2023-07-12T15:54:22.229Z,100311.38
2023-07-12T15:56:51.470Z,100301.97
2023-07-12T15:59:27.864Z,100298.81
2023-07-12T16:01:57.540Z,100302.03
2023-07-12T16:04:26.002Z,100299.06
2023-07-12T16:06:54.368Z,100296.69
2023-07-12T16:09:37.098Z,100311.00
2023-07-12T16:12:06.206Z,100313.91
2023-07-12T16:14:35.967Z,100312.81
2023-07-12T16:17:04.632Z,100313.31
2023-07-12T16:19:33.447Z,100307.28
2023-07-12T16:22:01.900Z,100318.41
2023-07-12T16:24:30.458Z,100317.56
2023-07-12T16:26:58.925Z,100314.81
2023-07-12T16:29:27.320Z,100312.09
2023-07-12T16:31:57.080Z,100316.53
2023-07-12T16:34:27.459Z,100319.34
2023-07-12T16:36:58.609Z,100313.72
2023-07-12T16:39:27.252Z,100324.16
2023-07-12T16:41:56.017Z,100325.75
2023-07-12T16:44:26.694Z,100330.63
2023-07-12T16:47:11.724Z,100335.88
2023-07-12T16:49:40.234Z,100338.34
2023-07-12T16:52:14.056Z,100333.22
2023-07-12T16:54:45.360Z,100340.00
2023-07-12T16:57:18.474Z,100346.03
2023-07-12T16:59:51.123Z,100349.63
2023-07-12T17:02:26.563Z,100348.44
2023-07-12T17:04:55.370Z,100359.63
2023-07-12T17:07:26.020Z,100354.81
2023-07-12T17:09:56.190Z,100354.81
2023-07-12T17:12:26.509Z,100351.25
2023-07-12T17:14:55.451Z,100355.63
2023-07-12T17:17:26.351Z,100357.56
2023-07-12T17:19:55.574Z,100361.56
2023-07-12T17:22:24.557Z,100361.22
2023-07-12T17:24:53.099Z,100355.63
2023-07-12T17:27:23.577Z,100361.22
2023-07-12T17:29:52.488Z,100366.81
2023-07-12T17:32:25.834Z,100358.81
2023-07-12T17:34:56.312Z,100365.22
2023-07-12T17:37:24.770Z,100364.44
2023-07-12T17:40:07.167Z,100364.75
2023-07-12T17:42:37.284Z,100364.34
2023-07-12T17:45:16.583Z,100359.50
2023-07-12T17:47:45.093Z,100369.84
2023-07-12T17:50:26.435Z,100369.41
2023-07-12T17:52:55.032Z,100367.72
2023-07-12T17:55:24.014Z,100370.03
2023-07-12T17:57:52.595Z,100365.94
2023-07-12T18:00:21.916Z,100375.06
2023-07-12T18:02:50.530Z,100364.66
2023-07-12T18:05:29.259Z,100374.22
2023-07-12T18:07:58.013Z,100370.22
2023-07-12T18:10:26.485Z,100371.00
2023-07-12T18:12:56.073Z,100378.53
2023-07-12T18:15:27.905Z,100382.94
2023-07-12T18:17:56.949Z,100388.13
2023-07-12T18:20:26.915Z,100388.47
2023-07-12T18:22:56.416Z,100383.13
2023-07-12T18:25:24.891Z,100385.88
2023-07-12T18:27:53.321Z,100384.22
2023-07-12T18:30:21.854Z,100391.75
2023-07-12T18:32:50.511Z,100386.44
2023-07-12T18:35:28.255Z,100392.13
2023-07-12T18:37:57.000Z,100391.31
2023-07-12T18:40:27.299Z,100389.41
2023-07-12T18:42:56.072Z,100392.22
2023-07-12T18:45:26.477Z,100393.00
2023-07-12T18:47:54.998Z,100392.16
2023-07-12T18:50:26.329Z,100389.69
2023-07-12T18:52:58.057Z,100389.59
2023-07-12T18:55:27.810Z,100393.16
2023-07-12T18:57:57.161Z,100395.81
2023-07-12T19:00:25.594Z,100392.66
2023-07-12T19:02:54.128Z,100395.34
2023-07-12T19:05:25.814Z,100400.84
2023-07-12T19:07:54.358Z,100395.56
2023-07-12T19:10:25.121Z,100405.72
2023-07-12T19:12:53.700Z,100404.81
2023-07-12T19:15:27.766Z,100397.50
2023-07-12T19:17:56.384Z,100394.50
2023-07-12T19:20:25.978Z,100407.47
2023-07-12T19:22:54.643Z,100416.72
2023-07-12T19:25:26.677Z,100417.81
2023-07-12T19:27:55.978Z,100420.50
2023-07-12T19:30:28.135Z,100421.19
2023-07-12T19:32:57.091Z,100419.00
2023-07-12T19:35:28.378Z,100413.88
2023-07-12T19:37:57.401Z,100416.34
2023-07-12T19:40:28.691Z,100424.13
2023-07-12T19:42:58.043Z,100415.53
2023-07-12T19:45:30.065Z,100426.63
2023-07-12T19:47:59.246Z,100429.00
2023-07-12T19:50:28.129Z,100433.31
2023-07-12T19:52:57.551Z,100431.53
2023-07-12T19:55:29.258Z,100436.22
2023-07-12T19:57:57.898Z,100436.72
2023-07-12T20:00:27.748Z,100437.72
2023-07-12T20:02:58.102Z,100430.84
2023-07-12T20:05:27.476Z,100444.28
2023-07-12T20:07:55.929Z,100437.41
2023-07-12T20:10:24.552Z,100432.88
2023-07-12T20:12:54.320Z,100447.00
2023-07-12T20:15:22.931Z,100446.94
2023-07-12T20:17:51.485Z,100452.34
2023-07-12T20:20:20.255Z,100447.78
2023-07-12T20:22:49.444Z,100452.00
2023-07-12T20:25:18.366Z,100450.16
2023-07-12T20:27:46.865Z,100457.25
2023-07-12T20:30:17.318Z,100461.19
2023-07-12T20:32:46.182Z,100458.50
2023-07-12T20:35:15.500Z,100459.09
2023-07-12T20:37:44.347Z,100467.84
2023-07-12T20:40:13.334Z,100465.81
2023-07-12T20:42:41.749Z,100471.19
2023-07-12T20:45:12.121Z,100470.63
2023-07-12T20:47:42.491Z,100472.59
2023-07-12T20:50:11.764Z,100476.38
2023-07-12T20:52:41.487Z,100471.97
2023-07-12T20:55:10.274Z,100474.31
2023-07-12T20:57:39.143Z,100470.84
2023-07-12T21:00:11.807Z,100471.19
2023-07-12T21:02:44.014Z,100475.19
2023-07-12T21:05:15.664Z,100479.78
2023-07-12T21:07:44.977Z,100477.13
2023-07-12T21:10:15.101Z,100484.50
2023-07-12T21:12:44.096Z,100481.78
2023-07-12T21:15:13.946Z,100490.34
2023-07-12T21:17:43.995Z,100482.56
2023-07-12T21:20:13.184Z,100482.38
2023-07-12T21:22:42.167Z,100475.47
2023-07-12T21:25:12.298Z,100488.66
2023-07-12T21:27:41.054Z,100487.56
2023-07-12T21:30:12.406Z,100485.50
2023-07-12T21:32:55.206Z,100498.31
2023-07-12T21:35:24.444Z,100494.88
2023-07-12T21:37:53.191Z,100500.28
2023-07-12T21:40:21.739Z,100500.56
2023-07-12T21:42:50.524Z,100508.66
2023-07-12T21:45:19.276Z,100508.84
2023-07-12T21:47:48.048Z,100508.72
2023-07-12T21:50:18.075Z,100505.84
2023-07-12T21:52:46.723Z,100509.66
2023-07-12T21:55:15.597Z,100509.91
2023-07-12T21:57:44.320Z,100514.28
2023-07-12T22:00:17.155Z,100506.09
2023-07-12T22:02:55.836Z,100507.47
2023-07-12T22:05:26.519Z,100515.53
2023-07-12T22:07:57.757Z,100511.28
2023-07-12T22:10:28.837Z,100513.22
2023-07-12T22:12:58.275Z,100510.22
2023-07-12T22:15:28.753Z,100510.22
2023-07-12T22:17:57.840Z,100516.78
2023-07-12T22:20:27.949Z,100519.06
2023-07-12T22:22:58.631Z,100510.69
2023-07-12T22:25:28.137Z,100506.19
2023-07-12T22:27:56.739Z,100510.06
2023-07-12T22:30:31.802Z,100519.19
2023-07-12T22:33:01.065Z,100523.44
2023-07-12T22:35:32.866Z,100525.81
2023-07-12T22:38:02.743Z,100528.31
2023-07-12T22:40:32.303Z,100535.25
2023-07-12T22:43:00.954Z,100532.03
2023-07-12T22:45:29.715Z,100535.81
2023-07-12T22:48:00.414Z,100544.13
2023-07-12T22:50:29.801Z,100544.59
2023-07-12T22:53:03.810Z,100553.91
2023-07-12T22:55:33.004Z,100547.56
2023-07-12T22:58:03.104Z,100545.84
2023-07-12T23:00:32.039Z,100545.44
2023-07-12T23:03:00.645Z,100548.25
2023-07-12T23:05:29.800Z,100549.06
2023-07-12T23:08:00.059Z,100547.22
2023-07-12T23:10:28.674Z,100547.50
2023-07-12T23:12:59.308Z,100546.06
2023-07-12T23:15:47.969Z,100558.06
2023-07-12T23:18:16.788Z,100551.72
2023-07-12T23:20:45.371Z,100553.09
2023-07-12T23:23:16.104Z,100547.94
2023-07-12T23:25:45.510Z,100563.03
2023-07-12T23:28:14.735Z,100555.53
2023-07-12T23:30:43.386Z,100553.69
2023-07-12T23:33:12.093Z,100554.72
2023-07-12T23:35:40.481Z,100567.38
2023-07-12T23:38:08.893Z,100563.00
2023-07-12T23:40:39.776Z,100567.25
2023-07-12T23:43:08.749Z,100572.69
2023-07-12T23:45:37.146Z,100574.06
2023-07-12T23:48:06.444Z,100572.00
2023-07-12T23:50:34.910Z,100568.09
2023-07-12T23:53:04.464Z,100569.34
2023-07-12T23:55:33.246Z,100572.47
2023-07-12T23:58:05.698Z,100571.31
